createdAt,value
2023-02-28T00:00:53.738Z,76.80
2023-02-28T00:05:57.477Z,76.63
2023-02-28T00:11:12.288Z,76.85
2023-02-28T00:16:19.375Z,77.31
2023-02-28T00:21:23.226Z,77.90
2023-02-28T00:26:27.238Z,77.51
2023-02-28T00:31:33.728Z,77.24
2023-02-28T00:36:37.537Z,77.83
2023-02-28T00:41:41.876Z,77.52
2023-02-28T00:46:48.778Z,77.28
2023-02-28T00:51:52.823Z,77.36
2023-02-28T00:56:57.121Z,77.62
2023-02-28T01:02:02.724Z,78.09
2023-02-28T01:07:06.575Z,77.67
2023-02-28T01:12:11.055Z,77.47
2023-02-28T01:17:14.681Z,77.41
2023-02-28T01:22:19.401Z,77.60
2023-02-28T01:27:23.069Z,77.33
2023-02-28T01:32:27.417Z,77.26
2023-02-28T01:37:31.047Z,77.15
2023-02-28T01:42:38.016Z,77.28
2023-02-28T01:47:45.738Z,77.19
2023-02-28T01:52:50.139Z,77.05
2023-02-28T01:57:56.942Z,76.54
2023-02-28T02:03:10.726Z,76.86
2023-02-28T02:08:27.113Z,76.72
2023-02-28T02:13:33.874Z,76.65
2023-02-28T02:19:15.244Z,76.85
2023-02-28T02:24:52.298Z,77.00
2023-02-28T02:30:43.133Z,77.63
2023-02-28T02:36:08.920Z,77.46
2023-02-28T02:41:26.075Z,77.21
2023-02-28T02:46:36.602Z,77.80
2023-02-28T02:51:42.329Z,77.63
2023-02-28T02:56:48.908Z,77.96
2023-02-28T03:01:58.941Z,77.71
2023-02-28T03:07:02.768Z,78.20
2023-02-28T03:12:10.742Z,78.04
2023-02-28T03:17:24.845Z,77.66
2023-02-28T03:22:58.853Z,78.40
2023-02-28T03:28:17.880Z,77.94
2023-02-28T03:33:40.898Z,77.65
2023-02-28T03:39:04.167Z,78.31
2023-02-28T03:44:16.629Z,78.79
2023-02-28T03:49:24.199Z,78.18
2023-02-28T03:54:33.428Z,78.16
2023-02-28T04:00:00.165Z,78.18
2023-02-28T04:05:04.762Z,78.26
2023-02-28T04:10:08.930Z,78.13
2023-02-28T04:15:12.732Z,77.96
2023-02-28T04:20:16.867Z,78.43
2023-02-28T04:25:21.374Z,78.47
2023-02-28T04:30:27.305Z,78.24
2023-02-28T04:35:31.828Z,78.62
2023-02-28T04:40:37.191Z,78.65
2023-02-28T04:45:42.432Z,79.63
2023-02-28T04:50:46.481Z,79.13
2023-02-28T04:55:51.660Z,79.26
2023-02-28T05:01:13.920Z,79.17
2023-02-28T05:06:19.240Z,79.63
2023-02-28T05:11:26.855Z,79.69
2023-02-28T05:16:32.513Z,79.87
2023-02-28T05:21:38.926Z,79.42
2023-02-28T05:26:44.022Z,79.39
2023-02-28T05:31:48.821Z,79.06
2023-02-28T05:36:52.679Z,79.10
2023-02-28T05:41:56.470Z,79.05
2023-02-28T05:47:00.108Z,79.61
2023-02-28T05:52:04.881Z,79.79
2023-02-28T05:57:18.920Z,79.29
2023-02-28T06:02:28.026Z,78.62
2023-02-28T06:07:31.864Z,78.52
2023-02-28T06:12:36.442Z,78.10
2023-02-28T06:17:41.486Z,77.83
2023-02-28T06:22:45.692Z,77.63
2023-02-28T06:27:49.981Z,77.39
2023-02-28T06:32:54.644Z,77.03
2023-02-28T06:37:58.748Z,76.69
2023-02-28T06:43:03.381Z,76.22
2023-02-28T06:48:07.550Z,75.94
2023-02-28T06:53:11.512Z,75.42
2023-02-28T06:58:20.337Z,75.28
2023-02-28T07:03:25.452Z,75.05
2023-02-28T07:08:29.463Z,73.73
2023-02-28T07:13:33.225Z,71.15
2023-02-28T07:18:38.058Z,71.31
2023-02-28T07:23:43.079Z,70.87
2023-02-28T07:28:48.966Z,71.02
2023-02-28T07:33:54.941Z,69.97
2023-02-28T07:38:59.973Z,68.43
2023-02-28T07:44:04.908Z,68.39
2023-02-28T07:49:09.774Z,67.28
2023-02-28T07:54:14.054Z,66.51
2023-02-28T07:59:18.564Z,68.45
2023-02-28T08:04:23.154Z,69.66
2023-02-28T08:09:28.239Z,68.54
2023-02-28T08:14:32.249Z,67.66
2023-02-28T08:19:35.983Z,67.53
2023-02-28T08:24:41.407Z,66.22
2023-02-28T08:29:45.196Z,67.30
2023-02-28T08:34:49.278Z,67.77
2023-02-28T08:39:56.224Z,67.16
2023-02-28T08:45:00.317Z,66.86
2023-02-28T08:50:06.709Z,65.59
2023-02-28T08:55:11.419Z,60.92
2023-02-28T09:00:15.828Z,60.07
2023-02-28T09:05:19.441Z,60.28
2023-02-28T09:10:23.063Z,57.14
2023-02-28T09:15:26.605Z,56.26
2023-02-28T09:20:30.142Z,55.76
2023-02-28T09:25:34.288Z,57.51
2023-02-28T09:30:38.156Z,55.17
2023-02-28T09:35:41.855Z,55.47
2023-02-28T09:41:14.669Z,55.68
2023-02-28T09:46:42.082Z,56.13
2023-02-28T09:51:50.699Z,54.60
2023-02-28T09:56:56.872Z,52.59
2023-02-28T10:02:39.524Z,54.09
2023-02-28T10:08:00.913Z,53.69
2023-02-28T10:13:08.528Z,53.01
2023-02-28T10:18:20.371Z,55.27
2023-02-28T10:23:26.730Z,53.92
2023-02-28T10:28:32.226Z,54.18
2023-02-28T10:33:37.223Z,54.28
2023-02-28T10:38:42.257Z,53.56
2023-02-28T10:43:49.202Z,54.53
2023-02-28T10:49:04.476Z,52.39
2023-02-28T10:54:18.022Z,54.13
2023-02-28T10:59:32.354Z,52.32
2023-02-28T11:04:39.234Z,52.03
2023-02-28T11:09:44.636Z,53.91
2023-02-28T11:14:51.589Z,53.32
2023-02-28T11:19:57.816Z,53.49
2023-02-28T11:25:03.890Z,53.45
2023-02-28T11:30:43.462Z,54.02
2023-02-28T11:35:50.211Z,54.40
2023-02-28T11:40:59.950Z,54.21
2023-02-28T11:46:42.970Z,55.48
2023-02-28T11:51:51.468Z,55.35
2023-02-28T11:57:02.178Z,54.59
2023-02-28T12:02:35.448Z,53.32
2023-02-28T12:07:51.242Z,54.51
2023-02-28T12:13:13.793Z,53.23
2023-02-28T12:19:22.456Z,52.88
2023-02-28T12:24:50.593Z,52.53
2023-02-28T12:30:20.317Z,52.07
2023-02-28T12:35:28.174Z,51.91
2023-02-28T12:40:56.305Z,53.91
2023-02-28T12:46:05.919Z,53.77
2023-02-28T12:51:09.871Z,52.93
2023-02-28T12:56:39.674Z,53.29
2023-02-28T13:02:16.145Z,54.59
2023-02-28T13:07:34.898Z,53.28
2023-02-28T13:12:52.410Z,53.67
2023-02-28T13:17:58.567Z,52.96
2023-02-28T13:23:06.947Z,53.01
2023-02-28T13:28:14.800Z,53.29
2023-02-28T13:34:17.058Z,53.58
2023-02-28T13:39:56.619Z,53.25
2023-02-28T13:45:03.372Z,52.87
2023-02-28T13:50:30.680Z,53.09
2023-02-28T13:56:19.625Z,52.62
2023-02-28T14:01:47.115Z,52.04
2023-02-28T14:06:56.461Z,52.51
2023-02-28T14:12:38.862Z,52.79
2023-02-28T14:17:42.471Z,52.02
2023-02-28T14:22:56.533Z,52.04
2023-02-28T14:28:10.538Z,52.12
2023-02-28T14:33:51.668Z,51.71
2023-02-28T14:39:13.520Z,51.43
2023-02-28T14:44:28.634Z,52.36
2023-02-28T14:49:35.960Z,53.17
2023-02-28T14:54:40.348Z,53.07
2023-02-28T14:59:44.159Z,53.48
2023-02-28T15:05:00.384Z,53.03
2023-02-28T15:10:44.600Z,53.50
2023-02-28T15:16:03.088Z,53.79
2023-02-28T15:21:51.932Z,53.91
2023-02-28T15:27:01.704Z,53.79
2023-02-28T15:32:09.470Z,54.47
2023-02-28T15:37:35.352Z,54.84
2023-02-28T15:42:39.552Z,54.44
2023-02-28T15:47:47.625Z,54.27
2023-02-28T15:52:51.953Z,54.39
2023-02-28T15:58:00.131Z,55.30
2023-02-28T16:03:24.224Z,56.28
2023-02-28T16:08:28.945Z,56.98
2023-02-28T16:13:33.898Z,57.35
2023-02-28T16:18:40.596Z,57.90
2023-02-28T16:23:44.355Z,58.58
2023-02-28T16:28:48.491Z,59.38
2023-02-28T16:33:56.882Z,59.77
2023-02-28T16:39:08.584Z,60.73
2023-02-28T16:44:36.989Z,60.93
2023-02-28T16:49:52.383Z,61.97
2023-02-28T16:55:03.363Z,62.56
2023-02-28T17:00:13.939Z,63.13
2023-02-28T17:05:18.681Z,63.14
2023-02-28T17:10:25.512Z,63.67
2023-02-28T17:15:29.277Z,63.55
2023-02-28T17:20:33.769Z,64.53
2023-02-28T17:25:38.235Z,64.62
2023-02-28T17:30:48.971Z,64.49
2023-02-28T17:35:53.915Z,65.54
2023-02-28T17:40:59.357Z,66.70
2023-02-28T17:46:03.656Z,67.30
2023-02-28T17:51:11.406Z,67.87
2023-02-28T17:56:29.257Z,69.30
2023-02-28T18:01:34.023Z,69.24
2023-02-28T18:06:53.274Z,69.02
2023-02-28T18:11:59.134Z,67.59
2023-02-28T18:17:09.216Z,68.62
2023-02-28T18:22:14.152Z,68.72
2023-02-28T18:27:23.819Z,69.57
2023-02-28T18:32:33.498Z,70.31
2023-02-28T18:37:44.277Z,71.07
2023-02-28T18:43:00.522Z,70.49
2023-02-28T18:48:13.781Z,71.43
2023-02-28T18:53:25.884Z,71.88
2023-02-28T18:58:34.693Z,71.72
2023-02-28T19:03:47.269Z,71.63
2023-02-28T19:08:58.752Z,70.95
2023-02-28T19:14:05.534Z,71.31
2023-02-28T19:19:12.337Z,72.07
2023-02-28T19:24:20.287Z,71.64
2023-02-28T19:29:27.447Z,72.68
2023-02-28T19:34:35.566Z,72.88
2023-02-28T19:39:49.182Z,73.29
2023-02-28T19:45:00.567Z,72.66
2023-02-28T19:50:07.416Z,72.74
2023-02-28T19:55:14.443Z,72.94
2023-02-28T20:00:25.794Z,73.79
2023-02-28T20:05:33.260Z,74.61
2023-02-28T20:10:42.191Z,75.78
2023-02-28T20:15:47.523Z,75.64
2023-02-28T20:20:55.131Z,73.92
2023-02-28T20:26:02.567Z,74.08
2023-02-28T20:31:20.933Z,73.50
2023-02-28T20:36:27.764Z,73.12
2023-02-28T20:41:35.523Z,72.92
2023-02-28T20:46:52.436Z,73.74
2023-02-28T20:52:01.231Z,74.85
2023-02-28T20:57:10.072Z,74.26
2023-02-28T21:02:19.573Z,75.39
2023-02-28T21:07:26.529Z,75.79
2023-02-28T21:12:33.254Z,76.38
2023-02-28T21:17:37.975Z,77.04
2023-02-28T21:22:42.533Z,77.57
2023-02-28T21:27:46.351Z,77.21
2023-02-28T21:32:51.648Z,77.45
2023-02-28T21:37:57.412Z,78.11
2023-02-28T21:43:01.248Z,78.29
2023-02-28T21:48:05.208Z,78.97
2023-02-28T21:53:13.342Z,79.11
2023-02-28T21:58:17.276Z,80.05
2023-02-28T22:03:24.697Z,79.80
2023-02-28T22:08:28.725Z,80.01
2023-02-28T22:13:34.180Z,80.26
2023-02-28T22:23:56.832Z,79.93
2023-02-28T22:29:01.531Z,80.26
2023-02-28T22:34:08.758Z,80.05
2023-02-28T22:39:12.782Z,80.70
2023-02-28T22:44:19.474Z,81.01
2023-02-28T22:49:25.462Z,79.96
2023-02-28T22:54:29.795Z,80.13
2023-02-28T22:59:34.133Z,79.92
2023-02-28T23:05:34.423Z,80.30
2023-02-28T23:10:42.254Z,80.76
2023-02-28T23:15:48.343Z,81.30
2023-02-28T23:20:52.272Z,81.49
2023-02-28T23:25:56.143Z,81.95
2023-02-28T23:31:05.073Z,81.56
2023-02-28T23:36:16.033Z,82.18
2023-02-28T23:41:22.548Z,83.72
2023-02-28T23:46:28.889Z,83.95
2023-02-28T23:51:33.263Z,85.13
2023-02-28T23:56:37.248Z,84.39
